Ether, North Carolina
Current Conditions -  °F | °C
As of 9:35 PM on Wednesday 22 Oct 2014 (Local Time) from KHBI Reporting Station
Clear Clear  
Wind Chill: 51°   Ceiling: Unl
Heat Index: 51°   Visibility: 10mi
Dew Point: 40°   Wind: 3mph
Humidity: 66%   Direction: 300°WNW
Pressure: 30.09"   Gusts: NA
Location:  35.44°N, 79.78°W
Report Text: KHBI 230135Z AUTO 30003KT 10SM CLR 11/04 A3009 RMK AO2 T01060044
Loading
Personal Weather Stations






























Interactive Weather Map
Tropical Storm Tracking
New forecast layout! Learn more

10-Day Weather Forecast

Advertisements
Track Severe Weather on mobile